Time;durP1;ratioP1;P1;durP2;ratioP2;P2;SDS_P1;SDS_P2;PMS_P1;PMS_P2;Temp;Humidity;BMP_temperature;BMP_pressure;BME280_temperature;BME280_humidity;BME280_pressure;Samples;Min_cycle;Max_cycle;Signal;HPM_P1;HPM_P2
2022/01/06 00:01:48;;;;;;;3.85;1.45;;;21.60;40.90;;;;;;5075548;28;20056;-56
2022/01/06 00:04:13;;;;;;;6.57;2.22;;;21.60;40.90;;;;;;5074989;28;20086;-57
2022/01/06 00:06:41;;;;;;;4.72;1.85;;;21.60;41.10;;;;;;5074939;28;20044;-57
2022/01/06 00:09:18;;;;;;;2.55;1.33;;;21.60;41.00;;;;;;5074951;28;20051;-57
2022/01/06 00:11:44;;;;;;;3.45;1.48;;;21.60;40.90;;;;;;5074721;28;20460;-57
2022/01/06 00:16:47;;;;;;;3.08;1.42;;;21.50;40.80;;;;;;5074838;28;20384;-57
2022/01/06 00:24:41;;;;;;;3.40;1.30;;;21.50;40.90;;;;;;5074676;28;20386;-57
2022/01/06 00:27:07;;;;;;;5.78;1.77;;;21.40;40.90;;;;;;5074618;28;20040;-57
2022/01/06 00:29:32;;;;;;;4.28;1.50;;;21.40;40.90;;;;;;5074576;28;20047;-57
2022/01/06 00:31:58;;;;;;;3.38;1.40;;;21.40;40.90;;;;;;5074497;28;20456;-57
2022/01/06 00:34:24;;;;;;;3.58;1.33;;;21.40;41.00;;;;;;5074478;28;20116;-57
2022/01/06 00:36:49;;;;;;;5.30;1.67;;;21.40;40.90;;;;;;5073401;28;20036;-57
2022/01/06 00:39:15;;;;;;;3.38;1.30;;;21.40;40.90;;;;;;5074232;28;20533;-57
2022/01/06 00:41:40;;;;;;;3.35;1.38;;;21.30;41.60;;;;;;5072758;28;20130;-57
2022/01/06 00:44:07;;;;;;;2.33;1.50;;;21.30;40.90;;;;;;5073076;28;20131;-57
2022/01/06 00:50:13;;;;;;;2.92;1.10;;;21.30;40.80;;;;;;5074219;28;20113;-57
2022/01/06 00:52:38;;;;;;;3.97;1.42;;;21.20;40.90;;;;;;5074090;28;20456;-57
2022/01/06 00:55:05;;;;;;;12.88;2.05;;;21.20;40.90;;;;;;5074494;28;20440;-57
2022/01/06 00:57:30;;;;;;;21.10;3.10;;;21.20;41.00;;;;;;5074002;28;20032;-57
2022/01/06 00:59:56;;;;;;;34.00;4.43;;;21.20;40.90;;;;;;5074151;28;20102;-57
2022/01/06 01:02:21;;;;;;;25.98;3.75;;;21.20;40.90;;;;;;5072543;28;20456;-57
2022/01/06 01:04:47;;;;;;;22.40;2.88;;;21.20;40.90;;;;;;5074348;28;20044;-56
2022/01/06 01:07:13;;;;;;;13.63;3.28;;;21.20;40.90;;;;;;5073751;28;20036;-56
2022/01/06 01:09:39;;;;;;;17.88;2.95;;;21.20;40.90;;;;;;5072493;28;20356;-57
2022/01/06 01:12:05;;;;;;;12.20;2.40;;;21.20;41.10;;;;;;5073783;28;20467;-57
2022/01/06 01:14:33;;;;;;;13.48;2.45;;;21.10;41.00;;;;;;5073337;28;20145;-57
2022/01/06 01:17:02;;;;;;;9.90;2.08;;;21.10;41.00;;;;;;5073738;28;20076;-57
2022/01/06 01:19:30;;;;;;;8.60;2.20;;;21.10;41.10;;;;;;5073642;28;20348;-56
2022/01/06 01:21:56;;;;;;;6.70;2.05;;;21.10;41.30;;;;;;5072543;28;20440;-57
2022/01/06 01:24:23;;;;;;;9.27;1.88;;;21.10;41.40;;;;;;5073501;28;20133;-56
2022/01/06 01:26:49;;;;;;;17.45;2.22;;;21.10;41.50;;;;;;5073574;28;20131;-56
2022/01/06 01:29:17;;;;;;;9.82;1.98;;;21.10;41.70;;;;;;5073537;28;20040;-56
2022/01/06 01:31:48;;;;;;;5.95;1.92;;;21.10;41.70;;;;;;5073499;28;20476;-57
2022/01/06 01:34:16;;;;;;;4.88;1.63;;;21.10;41.80;;;;;;5074027;28;20028;-57
2022/01/06 01:36:43;;;;;;;7.03;2.05;;;21.00;41.80;;;;;;5073952;28;20033;-57
2022/01/06 01:39:09;;;;;;;7.28;1.90;;;21.10;41.90;;;;;;5074014;28;20048;-57
2022/01/06 01:41:34;;;;;;;7.53;1.70;;;21.00;41.90;;;;;;5073928;28;20051;-56
2022/01/06 01:44:00;;;;;;;6.57;1.92;;;21.00;41.90;;;;;;5073263;28;20028;-56
2022/01/06 01:46:30;;;;;;;7.65;1.90;;;21.00;41.90;;;;;;5073297;28;20059;-56
2022/01/06 01:49:47;;;;;;;6.50;1.73;;;21.00;41.90;;;;;;5073314;28;20040;-56
2022/01/06 01:51:44;;;;;;;5.30;1.77;;;21.00;41.80;;;;;;5069541;28;20044;-56
2022/01/06 01:54:10;;;;;;;7.68;2.13;;;20.90;41.90;;;;;;5073298;28;20044;-56
2022/01/06 01:56:38;;;;;;;7.10;1.90;;;20.90;41.80;;;;;;5073332;28;20340;-56
2022/01/06 01:59:04;;;;;;;6.82;1.67;;;20.90;41.80;;;;;;5072053;28;20056;-56
2022/01/06 02:01:30;;;;;;;5.28;1.77;;;20.90;41.80;;;;;;5072068;28;20076;-56
2022/01/06 02:03:55;;;;;;;14.25;2.33;;;20.90;41.80;;;;;;5076483;28;20068;-56
2022/01/06 02:06:22;;;;;;;13.80;2.78;;;20.90;41.70;;;;;;5077393;28;20464;-56
2022/01/06 02:08:48;;;;;;;12.48;2.70;;;20.90;41.80;;;;;;5077329;28;20190;-56
2022/01/06 02:11:14;;;;;;;8.57;2.35;;;20.90;41.80;;;;;;5077265;28;20509;-56
2022/01/06 02:13:50;;;;;;;9.77;1.90;;;20.90;41.80;;;;;;5077152;28;20036;-56
2022/01/06 02:16:24;;;;;;;7.30;2.25;;;20.90;41.70;;;;;;5077207;28;20076;-56
2022/01/06 02:18:51;;;;;;;4.28;1.73;;;20.80;41.70;;;;;;5077199;28;20040;-56
2022/01/06 02:21:17;;;;;;;7.20;1.83;;;20.80;41.70;;;;;;5076927;28;20055;-56
2022/01/06 02:23:43;;;;;;;7.22;2.00;;;20.80;41.70;;;;;;5075560;28;20084;-56
2022/01/06 02:26:10;;;;;;;8.45;1.63;;;20.80;41.70;;;;;;5077020;28;20066;-56
2022/01/06 02:28:36;;;;;;;7.00;1.67;;;20.80;41.60;;;;;;5076983;28;20158;-56
2022/01/06 02:31:02;;;;;;;8.25;2.20;;;20.80;41.60;;;;;;5076913;28;20048;-56
2022/01/06 02:33:28;;;;;;;7.35;2.45;;;20.80;41.60;;;;;;5076606;28;20450;-56
2022/01/06 02:35:54;;;;;;;6.85;2.38;;;20.70;41.50;;;;;;5076783;28;20127;-56
2022/01/06 02:38:21;;;;;;;10.10;2.10;;;20.70;41.60;;;;;;5076734;28;20050;-56
2022/01/06 02:40:47;;;;;;;8.00;1.98;;;20.70;41.60;;;;;;5076724;28;20044;-56
2022/01/06 02:43:16;;;;;;;7.35;2.08;;;20.70;41.50;;;;;;5077063;28;20060;-56
2022/01/06 02:45:43;;;;;;;9.48;2.08;;;20.70;41.50;;;;;;5076545;28;20036;-56
2022/01/06 02:48:09;;;;;;;7.65;1.90;;;20.70;41.50;;;;;;5076586;28;20036;-56
2022/01/06 02:50:46;;;;;;;7.60;1.80;;;20.70;41.40;;;;;;5076548;28;20071;-56
2022/01/06 02:53:13;;;;;;;6.72;2.15;;;20.70;41.40;;;;;;5076531;28;20428;-56
2022/01/06 02:55:45;;;;;;;6.10;1.83;;;20.70;41.40;;;;;;5076448;28;20407;-56
2022/01/06 02:58:10;;;;;;;5.97;1.80;;;20.60;41.40;;;;;;5076921;28;20044;-57
2022/01/06 03:00:36;;;;;;;6.47;1.63;;;20.60;41.40;;;;;;5076909;28;20466;-56
2022/01/06 03:03:02;;;;;;;5.68;1.50;;;20.60;41.30;;;;;;5076506;28;20517;-56
2022/01/06 03:05:27;;;;;;;5.88;1.77;;;20.60;41.30;;;;;;5075822;28;20400;-56
2022/01/06 03:07:53;;;;;;;6.80;1.70;;;20.60;41.30;;;;;;5076176;28;20051;-56
2022/01/06 03:10:19;;;;;;;5.22;1.60;;;20.60;41.20;;;;;;5076655;28;20094;-56
2022/01/06 03:12:46;;;;;;;6.18;1.50;;;20.60;41.20;;;;;;5076138;28;20047;-56
2022/01/06 03:15:21;;;;;;;6.10;1.42;;;20.60;41.20;;;;;;5075918;28;20044;-56
2022/01/06 03:17:53;;;;;;;6.55;1.80;;;20.60;41.20;;;;;;5076094;28;20044;-56
2022/01/06 03:20:19;;;;;;;6.60;1.83;;;20.60;41.30;;;;;;5076018;28;20076;-56
2022/01/06 03:22:45;;;;;;;4.82;1.35;;;20.50;41.10;;;;;;5075384;28;20087;-57
2022/01/06 03:25:12;;;;;;;5.70;1.83;;;20.50;41.10;;;;;;5075846;28;20471;-56
2022/01/06 03:27:39;;;;;;;4.22;2.00;;;20.50;41.10;;;;;;5074888;28;20048;-56
2022/01/06 03:30:07;;;;;;;4.38;1.55;;;20.50;41.00;;;;;;5075972;28;20047;-56
2022/01/06 03:32:32;;;;;;;4.45;1.70;;;20.50;41.00;;;;;;5076473;28;20040;-56
2022/01/06 03:34:58;;;;;;;4.30;1.60;;;20.50;41.00;;;;;;5075621;28;20047;-56
2022/01/06 03:37:23;;;;;;;4.35;1.38;;;20.50;41.00;;;;;;5075682;28;20044;-56
2022/01/06 03:39:49;;;;;;;3.28;1.30;;;20.50;41.00;;;;;;5075808;28;20044;-56
2022/01/06 03:42:14;;;;;;;3.92;1.10;;;20.50;41.00;;;;;;5075573;28;20476;-56
2022/01/06 03:44:40;;;;;;;4.22;1.35;;;20.50;41.00;;;;;;5075436;28;20032;-56
2022/01/06 03:47:06;;;;;;;2.70;1.20;;;20.40;41.00;;;;;;5075449;28;20037;-56
2022/01/06 03:49:32;;;;;;;4.05;1.58;;;20.40;41.00;;;;;;5075483;28;20048;-56
2022/01/06 03:51:57;;;;;;;3.50;1.60;;;20.40;41.00;;;;;;5075377;28;20040;-56
2022/01/06 03:54:23;;;;;;;4.90;1.58;;;20.40;40.90;;;;;;5074982;28;20098;-56
2022/01/06 03:56:49;;;;;;;2.95;1.42;;;20.40;40.80;;;;;;5075204;28;20044;-56
2022/01/06 03:59:19;;;;;;;6.63;1.70;;;20.40;40.90;;;;;;5075152;28;20032;-56
2022/01/06 04:01:45;;;;;;;4.55;1.50;;;20.40;40.80;;;;;;5075220;28;20044;-56
2022/01/06 04:04:13;;;;;;;2.53;1.15;;;20.40;40.90;;;;;;5074599;28;20114;-56
2022/01/06 04:06:39;;;;;;;4.35;1.63;;;20.40;40.80;;;;;;5074808;28;20463;-56
2022/01/06 04:09:05;;;;;;;4.18;1.75;;;20.40;40.80;;;;;;5075081;28;20067;-56
2022/01/06 04:11:31;;;;;;;4.65;1.33;;;20.40;41.50;;;;;;5074936;28;20127;-57
2022/01/06 04:13:57;;;;;;;3.65;1.30;;;20.30;40.70;;;;;;5071884;28;20119;-56
2022/01/06 04:16:24;;;;;;;2.58;1.20;;;20.30;40.70;;;;;;5075903;28;20075;-56
2022/01/06 04:18:50;;;;;;;4.65;1.83;;;20.30;40.70;;;;;;5074867;28;20044;-56
2022/01/06 04:21:16;;;;;;;5.13;1.35;;;20.30;40.70;;;;;;5075141;28;20386;-56
2022/01/06 04:23:41;;;;;;;3.70;1.40;;;20.30;40.70;;;;;;5074778;28;20087;-56
2022/01/06 04:26:07;;;;;;;3.65;1.30;;;20.30;40.60;;;;;;5074147;28;20103;-56
2022/01/06 04:28:32;;;;;;;4.10;1.27;;;20.30;40.60;;;;;;5075157;28;20044;-56
2022/01/06 04:30:58;;;;;;;4.90;1.35;;;20.30;40.60;;;;;;5074126;28;20340;-56
2022/01/06 04:33:24;;;;;;;3.72;1.08;;;20.20;40.50;;;;;;5057748;28;20401;-56
2022/01/06 04:35:49;;;;;;;4.72;1.45;;;20.20;40.50;;;;;;5074470;28;20078;-56
2022/01/06 04:38:15;;;;;;;3.75;1.13;;;20.20;40.50;;;;;;5074426;28;20082;-56
2022/01/06 04:40:41;;;;;;;3.33;1.20;;;20.20;40.40;;;;;;5071067;28;20040;-57
2022/01/06 04:43:07;;;;;;;3.28;1.38;;;20.20;40.50;;;;;;5074255;28;20036;-56
2022/01/06 04:45:33;;;;;;;4.35;1.30;;;20.20;40.50;;;;;;5074339;28;20119;-56
2022/01/06 04:47:59;;;;;;;4.40;1.33;;;20.20;40.40;;;;;;5074243;28;20111;-56
2022/01/06 04:50:25;;;;;;;3.15;1.15;;;20.20;40.50;;;;;;5074704;28;20149;-56
2022/01/06 04:52:50;;;;;;;3.63;1.40;;;20.20;40.40;;;;;;5074129;28;20049;-56
2022/01/06 04:55:16;;;;;;;3.28;1.50;;;20.20;40.40;;;;;;5074111;28;20087;-56
2022/01/06 04:57:41;;;;;;;4.40;1.67;;;20.20;40.40;;;;;;5074025;28;20083;-56
2022/01/06 05:00:08;;;;;;;4.13;1.45;;;20.20;40.40;;;;;;5074182;28;20040;-56
2022/01/06 05:02:34;;;;;;;2.42;1.40;;;20.20;40.30;;;;;;5073778;28;20486;-56
2022/01/06 05:04:59;;;;;;;5.38;1.52;;;20.10;40.20;;;;;;5074463;28;20127;-56
2022/01/06 05:07:25;;;;;;;3.38;1.15;;;20.10;40.30;;;;;;5074345;28;20127;-56
2022/01/06 05:09:50;;;;;;;4.38;1.27;;;20.10;40.20;;;;;;5073803;28;20040;-56
2022/01/06 05:12:16;;;;;;;2.33;1.00;;;20.10;40.30;;;;;;5074263;28;20413;-57
2022/01/06 05:14:42;;;;;;;4.13;1.45;;;20.10;40.30;;;;;;5073967;28;20353;-56
2022/01/06 05:17:08;;;;;;;3.53;1.20;;;20.10;40.30;;;;;;5074180;28;20438;-56
2022/01/06 05:19:34;;;;;;;3.53;1.35;;;20.10;40.20;;;;;;5073721;28;20044;-56
2022/01/06 05:22:00;;;;;;;4.30;1.40;;;20.10;40.20;;;;;;5073658;28;20063;-57
2022/01/06 05:24:26;;;;;;;4.28;1.30;;;20.10;40.20;;;;;;5074492;28;20036;-57
2022/01/06 05:26:55;;;;;;;3.17;1.33;;;20.00;40.10;;;;;;5073701;28;20040;-57
2022/01/06 05:29:20;;;;;;;4.13;1.27;;;20.00;40.10;;;;;;5073920;28;20055;-57
2022/01/06 05:31:46;;;;;;;2.80;1.20;;;20.00;40.10;;;;;;5073552;28;20415;-57
2022/01/06 05:34:12;;;;;;;2.78;1.20;;;20.00;40.20;;;;;;5073588;28;20076;-57
2022/01/06 05:36:38;;;;;;;4.63;1.65;;;20.00;41.00;;;;;;5073045;28;20047;-57
2022/01/06 05:39:04;;;;;;;3.40;1.23;;;20.00;40.40;;;;;;5073230;28;20119;-57
2022/01/06 05:41:30;;;;;;;2.78;0.98;;;20.00;40.60;;;;;;5072303;28;20044;-57
2022/01/06 05:43:55;;;;;;;3.63;1.27;;;20.00;40.60;;;;;;5074064;28;20032;-57
2022/01/06 05:46:21;;;;;;;3.38;1.05;;;20.00;40.70;;;;;;5073531;28;20048;-57
2022/01/06 05:48:47;;;;;;;4.97;1.40;;;20.00;40.80;;;;;;5073437;28;20043;-57
2022/01/06 05:51:13;;;;;;;5.63;1.13;;;20.00;40.90;;;;;;5073390;28;20426;-57
2022/01/06 05:53:39;;;;;;;4.40;1.10;;;20.00;41.00;;;;;;5073052;28;20087;-57
2022/01/06 05:56:05;;;;;;;3.25;1.30;;;20.00;41.00;;;;;;5073337;28;20056;-57
2022/01/06 05:58:30;;;;;;;5.30;1.75;;;20.00;41.00;;;;;;5073380;28;20429;-57
2022/01/06 06:00:56;;;;;;;3.28;1.38;;;20.10;41.10;;;;;;5073032;28;20040;-57
2022/01/06 06:03:22;;;;;;;4.45;1.27;;;20.00;41.00;;;;;;5073282;28;20041;-57
2022/01/06 06:05:48;;;;;;;3.97;1.20;;;20.00;41.00;;;;;;5073243;28;20051;-57
2022/01/06 06:08:14;;;;;;;3.22;1.20;;;20.00;41.00;;;;;;5073245;28;20044;-57
2022/01/06 06:10:39;;;;;;;6.90;1.75;;;20.00;41.80;;;;;;5073284;28;20040;-56
2022/01/06 06:13:06;;;;;;;3.25;1.40;;;20.00;41.10;;;;;;5073691;28;20490;-48
2022/01/06 06:15:35;;;;;;;5.45;1.48;;;20.00;41.00;;;;;;5073061;28;20079;-49
2022/01/06 06:18:11;;;;;;;4.72;1.63;;;20.00;41.00;;;;;;5071835;28;20032;-49
2022/01/06 06:20:40;;;;;;;3.80;1.23;;;20.00;40.90;;;;;;5073793;28;20070;-57
2022/01/06 06:23:06;;;;;;;4.07;1.35;;;20.00;40.90;;;;;;5073723;28;20213;-56
2022/01/06 06:25:32;;;;;;;2.67;1.38;;;20.00;40.90;;;;;;5073649;28;20459;-56
2022/01/06 06:27:58;;;;;;;3.63;1.25;;;20.00;40.90;;;;;;5071509;28;20515;-56
2022/01/06 06:30:24;;;;;;;5.05;1.58;;;20.10;40.90;;;;;;5072673;28;20044;-56
2022/01/06 06:32:49;;;;;;;5.18;1.50;;;20.10;41.10;;;;;;5072947;28;20048;-56
2022/01/06 06:35:15;;;;;;;5.55;1.40;;;20.10;41.20;;;;;;5072962;28;20036;-56
2022/01/06 06:37:40;;;;;;;3.40;1.23;;;20.10;41.20;;;;;;5072966;28;20044;-56
2022/01/06 06:40:06;;;;;;;4.85;1.20;;;20.10;41.30;;;;;;5071871;28;20041;-54
2022/01/06 06:42:32;;;;;;;4.85;1.60;;;20.10;41.20;;;;;;5072735;28;20037;-55
2022/01/06 06:44:58;;;;;;;5.43;1.55;;;20.10;41.10;;;;;;5073407;28;20417;-55
2022/01/06 06:47:24;;;;;;;4.80;1.67;;;20.10;41.10;;;;;;5073473;28;20088;-55
2022/01/06 06:49:50;;;;;;;4.15;1.25;;;20.20;41.20;;;;;;5075526;28;20087;-55
2022/01/06 06:52:16;;;;;;;4.70;1.45;;;20.20;41.30;;;;;;5076458;28;20080;-55
2022/01/06 06:54:42;;;;;;;3.60;1.70;;;20.20;41.40;;;;;;5076462;28;20048;-55
2022/01/06 06:57:08;;;;;;;4.75;1.50;;;20.20;41.40;;;;;;5076455;28;20044;-55
2022/01/06 06:59:34;;;;;;;5.97;1.98;;;20.20;41.50;;;;;;5076247;28;20375;-56
2022/01/06 07:02:00;;;;;;;3.65;1.30;;;20.20;41.50;;;;;;5076443;28;20077;-55
2022/01/06 07:04:25;;;;;;;5.90;1.65;;;20.30;41.50;;;;;;5076342;28;20080;-55
2022/01/06 07:06:51;;;;;;;6.78;1.75;;;20.20;41.50;;;;;;5076254;28;20040;-56
2022/01/06 07:09:16;;;;;;;4.82;1.50;;;20.30;41.50;;;;;;5076191;28;20033;-55
2022/01/06 07:11:42;;;;;;;7.10;1.60;;;20.30;41.50;;;;;;5076035;28;20042;-55
2022/01/06 07:14:07;;;;;;;5.00;1.60;;;20.30;41.50;;;;;;5075825;28;20051;-55
2022/01/06 07:16:33;;;;;;;6.88;2.30;;;20.30;41.60;;;;;;5075881;28;20036;-55
2022/01/06 07:18:59;;;;;;;5.88;1.40;;;20.30;41.50;;;;;;5076296;28;20048;-55
2022/01/06 07:21:24;;;;;;;5.47;1.70;;;20.30;41.40;;;;;;5075532;28;20059;-55
2022/01/06 07:23:52;;;;;;;3.78;1.75;;;20.30;41.40;;;;;;5076248;28;20043;-55
2022/01/06 07:26:17;;;;;;;5.53;1.80;;;20.30;41.40;;;;;;5076113;28;20047;-56
2022/01/06 07:28:43;;;;;;;6.28;1.58;;;20.30;41.50;;;;;;5075867;28;20036;-55
2022/01/06 07:31:08;;;;;;;3.63;1.48;;;20.40;41.60;;;;;;5076124;28;20044;-56
2022/01/06 07:33:34;;;;;;;3.38;1.40;;;20.40;41.60;;;;;;5076048;28;20360;-55
2022/01/06 07:35:59;;;;;;;7.03;1.83;;;20.40;41.60;;;;;;5075483;28;20150;-55
2022/01/06 07:38:25;;;;;;;5.22;1.67;;;20.40;41.60;;;;;;5075675;28;20123;-55
2022/01/06 07:40:51;;;;;;;5.88;1.70;;;20.40;41.60;;;;;;5075517;28;20087;-56
2022/01/06 07:43:16;;;;;;;5.65;1.58;;;20.40;41.60;;;;;;5075765;28;20041;-55
2022/01/06 07:45:42;;;;;;;2.50;1.40;;;20.40;41.60;;;;;;5075251;28;20470;-55
2022/01/06 07:48:16;;;;;;;6.25;1.85;;;20.40;41.60;;;;;;5075207;28;20535;-55
2022/01/06 07:50:43;;;;;;;4.55;1.90;;;20.40;41.60;;;;;;5075492;28;20048;-55
2022/01/06 07:53:09;;;;;;;14.52;2.35;;;20.40;42.30;;;;;;5075326;28;20036;-55
2022/01/06 07:55:35;;;;;;;2.90;1.60;;;20.40;41.60;;;;;;5075339;28;20477;-55
2022/01/06 07:58:01;;;;;;;6.28;2.15;;;20.40;41.60;;;;;;5075169;28;20043;-55
2022/01/06 08:00:26;;;;;;;4.63;1.77;;;20.40;42.30;;;;;;5074249;28;20119;-57
2022/01/06 08:02:52;;;;;;;8.98;1.90;;;20.40;41.70;;;;;;5061940;28;20051;-56
2022/01/06 08:05:20;;;;;;;7.93;2.42;;;20.40;41.60;;;;;;5055032;28;20040;-55
2022/01/06 08:07:46;;;;;;;7.90;2.40;;;20.40;42.20;;;;;;5055518;28;20062;-55
2022/01/06 08:10:12;;;;;;;7.93;1.92;;;20.40;41.40;;;;;;5055006;28;20144;-56
2022/01/06 08:12:38;;;;;;;7.30;2.00;;;20.40;41.40;;;;;;5055534;28;20063;-55
2022/01/06 08:15:04;;;;;;;6.75;1.92;;;20.40;41.30;;;;;;5055369;28;20083;-56
2022/01/06 08:17:30;;;;;;;6.57;2.15;;;20.40;41.30;;;;;;5053661;28;20045;-56
2022/01/06 08:19:56;;;;;;;4.45;1.77;;;20.40;41.30;;;;;;5054843;28;20041;-56
2022/01/06 08:22:22;;;;;;;4.90;1.67;;;20.50;41.30;;;;;;5055225;28;20037;-56
2022/01/06 08:24:47;;;;;;;5.80;2.25;;;20.50;41.20;;;;;;5074606;28;20056;-56
2022/01/06 08:27:13;;;;;;;4.70;1.88;;;20.50;41.10;;;;;;5081421;28;20044;-56
2022/01/06 08:29:39;;;;;;;4.50;2.00;;;20.50;41.10;;;;;;5094752;28;20044;-56
2022/01/06 08:32:06;;;;;;;4.65;2.00;;;20.50;41.10;;;;;;5094569;28;20035;-56
2022/01/06 08:34:33;;;;;;;5.30;2.17;;;20.50;41.10;;;;;;5085233;28;20036;-56
2022/01/06 08:36:58;;;;;;;5.40;1.95;;;20.50;41.20;;;;;;5074399;28;20047;-56
2022/01/06 08:39:24;;;;;;;4.07;1.98;;;20.50;41.20;;;;;;5074344;28;20037;-56
2022/01/06 08:41:50;;;;;;;7.22;2.30;;;20.50;41.30;;;;;;5074256;28;20044;-56
2022/01/06 08:44:16;;;;;;;6.68;2.20;;;20.50;41.20;;;;;;5074218;28;20033;-56
2022/01/06 08:46:42;;;;;;;3.60;2.10;;;20.50;41.20;;;;;;5074227;28;20102;-56
2022/01/06 08:49:11;;;;;;;3.42;1.60;;;20.50;41.20;;;;;;5074128;28;20143;-56
2022/01/06 08:51:38;;;;;;;3.50;2.08;;;20.50;41.90;;;;;;5074634;28;20051;-56
2022/01/06 08:54:04;;;;;;;5.68;1.80;;;20.50;41.10;;;;;;5072938;28;20048;-56
2022/01/06 08:56:29;;;;;;;6.57;2.08;;;20.50;41.00;;;;;;5074026;28;20047;-56
2022/01/06 08:58:55;;;;;;;6.78;2.58;;;20.50;41.00;;;;;;5074001;28;20040;-56
2022/01/06 09:01:21;;;;;;;3.70;1.63;;;20.60;41.00;;;;;;5073918;28;20033;-56
2022/01/06 09:03:47;;;;;;;6.43;1.90;;;20.60;41.00;;;;;;5073924;28;20047;-56
2022/01/06 09:06:12;;;;;;;5.50;2.03;;;20.60;41.00;;;;;;5073814;28;20086;-56
2022/01/06 09:08:38;;;;;;;3.80;1.80;;;20.60;41.00;;;;;;5073842;28;20042;-56
2022/01/06 09:11:04;;;;;;;4.20;1.83;;;20.60;40.90;;;;;;5073720;28;20040;-56
2022/01/06 09:13:29;;;;;;;4.50;1.88;;;20.60;40.90;;;;;;5073683;28;20044;-56
2022/01/06 09:15:55;;;;;;;5.15;2.03;;;20.60;40.80;;;;;;5073644;28;20345;-56
2022/01/06 09:18:21;;;;;;;6.38;2.17;;;20.60;40.90;;;;;;5073294;28;20036;-56
2022/01/06 09:20:46;;;;;;;4.78;1.70;;;20.60;40.80;;;;;;5073772;28;20136;-56
2022/01/06 09:23:13;;;;;;;5.78;2.10;;;20.60;40.80;;;;;;5074537;28;20455;-56
2022/01/06 09:25:38;;;;;;;5.10;2.15;;;20.60;40.80;;;;;;5073560;28;20055;-56
2022/01/06 09:28:04;;;;;;;5.20;1.88;;;20.60;40.80;;;;;;5073521;28;20044;-56
2022/01/06 09:30:29;;;;;;;4.93;1.80;;;20.60;40.70;;;;;;5073903;28;20063;-56
2022/01/06 09:32:55;;;;;;;4.55;1.98;;;20.60;40.70;;;;;;5073426;28;20047;-56
2022/01/06 09:35:21;;;;;;;5.07;2.38;;;20.60;40.70;;;;;;5073250;28;20040;-56
2022/01/06 09:37:47;;;;;;;4.65;1.95;;;20.70;40.70;;;;;;5073043;28;20040;-56
2022/01/06 09:40:13;;;;;;;6.45;2.20;;;20.60;40.60;;;;;;5073355;28;20051;-56
2022/01/06 09:42:41;;;;;;;4.97;1.85;;;20.70;40.70;;;;;;5072101;28;20044;-56
2022/01/06 09:45:08;;;;;;;3.83;1.88;;;20.70;40.70;;;;;;5073233;28;20462;-56
2022/01/06 09:47:33;;;;;;;5.22;2.28;;;20.70;40.70;;;;;;5073375;28;20048;-56
2022/01/06 09:49:59;;;;;;;5.40;2.03;;;20.70;40.70;;;;;;5071835;28;20032;-56
2022/01/06 09:52:25;;;;;;;4.63;1.80;;;20.70;40.70;;;;;;5073437;28;20044;-56
2022/01/06 09:54:51;;;;;;;4.25;1.75;;;20.70;40.60;;;;;;5073508;28;20048;-56
2022/01/06 09:57:16;;;;;;;5.75;1.90;;;20.70;40.60;;;;;;5073288;28;20479;-56
2022/01/06 09:59:44;;;;;;;7.13;1.75;;;20.70;40.60;;;;;;5073747;28;20076;-56
2022/01/06 10:02:16;;;;;;;4.75;2.10;;;20.80;40.60;;;;;;5073187;28;20056;-56
2022/01/06 10:04:43;;;;;;;4.45;1.92;;;20.80;40.60;;;;;;5073173;28;20463;-55
2022/01/06 10:07:09;;;;;;;4.97;2.00;;;20.80;40.60;;;;;;5073543;28;20174;-55
2022/01/06 10:09:37;;;;;;;6.18;1.90;;;20.80;40.60;;;;;;5073190;28;20582;-58
2022/01/06 10:12:09;;;;;;;4.32;1.90;;;20.80;40.60;;;;;;5055127;28;20360;-57
2022/01/06 10:14:42;;;;;;;4.70;1.85;;;20.80;40.60;;;;;;5072921;28;20040;-55
2022/01/06 10:17:09;;;;;;;5.53;2.25;;;20.80;40.60;;;;;;5072146;28;20438;-55
2022/01/06 10:19:40;;;;;;;4.68;1.83;;;20.80;40.60;;;;;;5072983;28;20076;-55
2022/01/06 10:22:11;;;;;;;7.90;1.80;;;20.80;40.60;;;;;;5073076;28;20092;-55
2022/01/06 10:24:37;;;;;;;5.28;1.83;;;20.80;40.60;;;;;;5075516;28;20052;-55
2022/01/06 10:27:09;;;;;;;5.25;2.05;;;20.80;40.60;;;;;;5076913;28;20040;-55
2022/01/06 10:29:37;;;;;;;4.95;1.75;;;20.90;40.70;;;;;;5076859;28;20047;-55
2022/01/06 10:32:04;;;;;;;4.60;1.63;;;20.90;40.60;;;;;;5076864;28;20424;-55
2022/01/06 10:34:32;;;;;;;4.85;1.85;;;20.80;40.60;;;;;;5076799;28;20119;-55
2022/01/06 10:36:57;;;;;;;5.03;1.73;;;20.90;40.60;;;;;;5077031;28;20538;-55
2022/01/06 10:39:23;;;;;;;4.70;1.75;;;20.90;40.60;;;;;;5076898;28;20076;-55
2022/01/06 10:41:51;;;;;;;3.40;1.80;;;20.90;40.60;;;;;;5076624;28;20043;-55
2022/01/06 10:44:16;;;;;;;4.38;1.80;;;20.90;40.60;;;;;;5076746;28;20124;-56
2022/01/06 10:46:44;;;;;;;5.20;2.05;;;20.90;40.60;;;;;;5076726;28;20132;-55
2022/01/06 10:49:17;;;;;;;5.28;1.88;;;20.90;40.60;;;;;;5076451;28;20040;-56
2022/01/06 10:51:45;;;;;;;3.80;1.70;;;20.90;40.60;;;;;;5076433;28;20490;-55
2022/01/06 10:54:16;;;;;;;3.30;1.60;;;20.90;40.60;;;;;;5076354;28;20052;-55
2022/01/06 10:56:42;;;;;;;4.68;1.67;;;20.90;40.60;;;;;;5077038;28;20121;-55
2022/01/06 10:59:08;;;;;;;5.25;1.67;;;20.90;40.50;;;;;;5075562;28;20049;-55
2022/01/06 11:01:35;;;;;;;3.15;1.90;;;20.90;40.50;;;;;;5075824;28;20042;-55
2022/01/06 11:04:02;;;;;;;3.63;1.75;;;20.90;40.50;;;;;;5074838;28;20036;-55
2022/01/06 11:06:29;;;;;;;4.70;1.83;;;20.90;40.50;;;;;;5076058;28;20041;-55
2022/01/06 11:08:55;;;;;;;6.55;1.92;;;20.90;40.50;;;;;;5075777;28;20443;-55
2022/01/06 11:11:32;;;;;;;4.97;1.40;;;20.90;40.50;;;;;;5075970;28;20040;-55
2022/01/06 11:13:58;;;;;;;4.15;1.40;;;21.00;40.50;;;;;;5076030;28;20469;-56
2022/01/06 11:16:24;;;;;;;6.35;2.20;;;21.00;40.70;;;;;;5076422;28;20089;-55
2022/01/06 11:18:53;;;;;;;3.38;1.73;;;21.00;40.70;;;;;;5076017;28;20083;-55
2022/01/06 11:21:41;;;;;;;3.80;1.55;;;21.00;40.70;;;;;;5075917;28;20174;-55
2022/01/06 11:24:19;;;;;;;4.97;1.80;;;21.00;40.80;;;;;;5075776;28;20032;-55
2022/01/06 11:27:01;;;;;;;2.65;1.73;;;21.00;41.30;;;;;;5076374;28;20046;-55
2022/01/06 11:29:29;;;;;;;5.45;1.88;;;21.00;41.30;;;;;;5076399;28;20452;-55
2022/01/06 11:31:56;;;;;;;4.80;1.80;;;21.00;41.30;;;;;;5075723;28;20036;-55
2022/01/06 11:34:22;;;;;;;4.93;1.90;;;21.00;41.40;;;;;;5075373;28;20098;-56
2022/01/06 11:36:50;;;;;;;4.30;1.83;;;21.00;41.60;;;;;;5058254;28;20045;-55
2022/01/06 11:39:30;;;;;;;5.60;2.17;;;21.00;41.70;;;;;;5055759;28;20472;-55
2022/01/06 11:41:57;;;;;;;3.83;1.65;;;21.00;41.90;;;;;;5056179;28;20045;-55
2022/01/06 11:44:29;;;;;;;4.75;1.60;;;21.00;42.00;;;;;;5055156;28;20535;-55
2022/01/06 11:47:01;;;;;;;4.28;1.73;;;21.00;42.10;;;;;;5055554;28;20049;-55
2022/01/06 11:49:39;;;;;;;4.20;1.90;;;21.10;42.10;;;;;;5055479;28;20506;-55
2022/01/06 11:52:13;;;;;;;4.80;1.77;;;21.10;42.20;;;;;;5055364;28;20120;-55
2022/01/06 11:54:53;;;;;;;4.15;1.65;;;21.10;43.00;;;;;;5055370;28;20056;-55
2022/01/06 11:57:40;;;;;;;3.17;1.67;;;21.10;42.30;;;;;;5055553;28;20049;-55
2022/01/06 12:00:18;;;;;;;3.63;1.80;;;21.10;42.40;;;;;;5055503;28;20036;-55
2022/01/06 12:02:56;;;;;;;7.15;2.15;;;21.10;42.70;;;;;;5053618;28;20480;-55
2022/01/06 12:05:22;;;;;;;6.97;1.95;;;21.10;42.70;;;;;;5055206;28;20033;-56
2022/01/06 12:07:50;;;;;;;8.57;2.00;;;21.10;42.90;;;;;;5054940;28;20087;-55
2022/01/06 12:10:15;;;;;;;5.72;1.80;;;21.20;42.90;;;;;;5058780;28;20082;-56
2022/01/06 12:12:41;;;;;;;5.57;1.70;;;21.10;42.90;;;;;;5070877;28;20044;-56
2022/01/06 12:15:11;;;;;;;4.38;2.00;;;21.20;42.90;;;;;;5057867;28;20033;-55
2022/01/06 12:17:43;;;;;;;3.67;1.50;;;21.10;42.80;;;;;;5063472;28;20044;-55
2022/01/06 12:20:08;;;;;;;6.68;1.70;;;21.20;42.80;;;;;;5071954;28;20040;-56
2022/01/06 12:22:34;;;;;;;9.23;1.75;;;21.20;42.80;;;;;;5052765;28;20048;-56
2022/01/06 12:25:05;;;;;;;6.57;2.05;;;21.20;42.80;;;;;;5054635;28;20085;-55
2022/01/06 12:27:31;;;;;;;7.82;1.73;;;21.20;42.70;;;;;;5052168;28;20045;-55
2022/01/06 12:29:57;;;;;;;4.20;1.63;;;21.20;42.70;;;;;;5050345;28;20036;-56
2022/01/06 12:32:23;;;;;;;5.57;1.80;;;21.20;42.70;;;;;;5047013;28;21030;-56
2022/01/06 12:34:53;;;;;;;3.47;1.73;;;21.20;42.60;;;;;;5053154;28;20078;-56
2022/01/06 12:37:29;;;;;;;7.68;2.05;;;21.20;42.60;;;;;;5074456;28;20400;-55
2022/01/06 12:39:56;;;;;;;5.43;1.50;;;21.20;42.70;;;;;;5074387;28;20375;-56
2022/01/06 12:42:23;;;;;;;6.03;1.95;;;21.20;42.70;;;;;;5074378;28;20048;-55
2022/01/06 12:44:49;;;;;;;5.90;1.77;;;21.20;43.10;;;;;;5074243;28;20082;-56
2022/01/06 12:47:15;;;;;;;4.63;1.95;;;21.20;42.60;;;;;;5073859;28;20123;-55
2022/01/06 12:49:40;;;;;;;6.82;1.98;;;21.30;42.80;;;;;;5052329;28;20120;-56
2022/01/06 12:52:06;;;;;;;6.40;2.20;;;21.30;42.80;;;;;;5053868;28;20130;-56
2022/01/06 12:54:37;;;;;;;6.53;1.85;;;21.30;42.70;;;;;;5054130;28;20041;-55
2022/01/06 12:57:06;;;;;;;4.60;1.65;;;21.30;42.60;;;;;;5054133;28;20560;-56